Time;durP1;ratioP1;P1;durP2;ratioP2;P2;SDS_P1;SDS_P2;PMS_P1;PMS_P2;Temp;Humidity;BMP_temperature;BMP_pressure;BME280_temperature;BME280_humidity;BME280_pressure;Samples;Min_cycle;Max_cycle;Signal;HPM_P1;HPM_P2
2022/03/29 00:02:24;;;;;;;;;37.25;32.00;;;;;15.54;39.14;101061.78;5078050;27;45295;-74
2022/03/29 00:04:51;;;;;;;;;36.00;31.25;;;;;15.47;38.81;101051.97;5069797;28;45444;-74
2022/03/29 00:07:17;;;;;;;;;32.50;28.25;;;;;15.53;37.42;101060.00;5078456;28;45297;-74
2022/03/29 00:09:42;;;;;;;;;40.50;31.00;;;;;15.33;38.73;101019.88;5073650;28;46037;-74
2022/03/29 00:12:08;;;;;;;;;42.50;32.75;;;;;15.21;38.54;100988.72;5077429;28;45320;-74
2022/03/29 00:14:34;;;;;;;;;34.50;32.25;;;;;15.25;39.58;100989.63;5071674;28;45585;-75
2022/03/29 00:16:59;;;;;;;;;39.00;31.75;;;;;15.22;39.07;100983.38;5067273;28;45246;-74
2022/03/29 00:19:24;;;;;;;;;34.50;30.75;;;;;15.35;39.19;101010.13;5075484;28;46110;-74
2022/03/29 00:21:50;;;;;;;;;32.00;29.00;;;;;15.18;39.11;100970.94;5068169;28;45281;-74
2022/03/29 00:24:15;;;;;;;;;34.50;28.25;;;;;15.33;38.91;100998.56;5077229;28;46988;-74
2022/03/29 00:26:41;;;;;;;;;33.75;32.00;;;;;15.46;38.07;101019.09;5068589;28;45241;-74
2022/03/29 00:29:08;;;;;;;;;35.50;30.00;;;;;15.35;39.39;101008.34;5077616;28;45903;-74
2022/03/29 00:31:33;;;;;;;;;34.50;30.00;;;;;15.41;39.19;101018.16;5069350;27;45307;-74
2022/03/29 00:33:58;;;;;;;;;37.25;33.00;;;;;15.39;39.51;101020.81;5077642;27;46118;-74
2022/03/29 00:36:24;;;;;;;;;39.50;31.25;;;;;15.37;39.98;101011.00;5070999;27;45453;-74
2022/03/29 00:38:50;;;;;;;;;42.75;30.50;;;;;15.10;40.35;100969.97;5077553;28;45379;-74
2022/03/29 00:41:16;;;;;;;;;38.75;30.50;;;;;15.34;40.48;101005.66;5072258;28;45398;-75
2022/03/29 00:43:41;;;;;;;;;39.00;32.25;;;;;15.32;40.40;101005.69;5070181;28;45482;-74
2022/03/29 00:46:07;;;;;;;;;37.00;31.50;;;;;15.28;39.82;100995.84;5076864;28;46141;-74
2022/03/29 00:48:32;;;;;;;;;39.50;30.25;;;;;15.26;39.53;100996.72;5075248;27;45343;-74
2022/03/29 00:50:58;;;;;;;;;33.50;30.25;;;;;14.66;40.67;100890.63;5076875;28;45351;-74
2022/03/29 00:53:24;;;;;;;;;40.50;33.00;;;;;15.21;40.22;100984.28;5070613;28;45469;-74
2022/03/29 00:55:51;;;;;;;;;38.00;31.25;;;;;15.20;40.52;100981.59;5069937;28;45223;-74
2022/03/29 00:58:17;;;;;;;;;39.00;33.00;;;;;15.16;40.28;100980.69;5074053;28;47628;-74
2022/03/29 01:00:43;;;;;;;;;35.50;30.50;;;;;15.16;40.97;100985.13;5075979;27;45227;-74
2022/03/29 01:03:08;;;;;;;;;36.50;29.50;;;;;15.12;40.10;100973.53;5077173;27;45444;-75
2022/03/29 01:05:34;;;;;;;;;38.50;33.75;;;;;14.97;40.95;100945.00;5068909;28;45397;-74
2022/03/29 01:08:00;;;;;;;;;40.75;30.75;;;;;15.09;40.18;100969.94;5076856;27;46010;-75
2022/03/29 01:10:27;;;;;;;;;37.00;32.00;;;;;15.05;41.01;100962.84;5075997;28;45275;-74
2022/03/29 01:12:53;;;;;;;;;38.75;32.75;;;;;15.04;40.88;100961.94;5076566;28;45360;-74
2022/03/29 01:15:19;;;;;;;;;37.25;32.25;;;;;14.82;39.96;100928.03;5066226;28;45519;-74
2022/03/29 01:17:47;;;;;;;;;28.75;21.50;;;;;15.00;40.40;100960.13;5071864;28;45743;-74
2022/03/29 01:20:17;;;;;;;;;33.50;30.00;;;;;14.90;40.99;100943.19;5066147;27;45362;-74
2022/03/29 01:22:48;;;;;;;;;33.50;31.00;;;;;14.81;39.60;100935.09;5071232;28;45260;-74
2022/03/29 01:25:19;;;;;;;;;31.25;28.25;;;;;14.85;40.53;100944.91;5066021;28;45633;-74
2022/03/29 01:27:46;;;;;;;;;38.25;31.00;;;;;14.71;40.78;100925.28;5076538;28;46771;-74
2022/03/29 01:30:13;;;;;;;;;37.00;31.50;;;;;14.72;40.81;100927.03;5074024;27;45409;-74
2022/03/29 01:32:40;;;;;;;;;34.75;32.25;;;;;14.90;40.81;100960.91;5075849;28;46037;-75
2022/03/29 01:35:06;;;;;;;;;37.25;29.25;;;;;14.80;40.29;100941.31;5071222;28;45305;-74
2022/03/29 01:37:33;;;;;;;;;38.75;29.25;;;;;14.51;40.64;100890.47;5077332;28;46160;-74
2022/03/29 01:39:59;;;;;;;;;36.00;31.50;;;;;14.53;40.39;100900.25;5073971;28;45358;-74
2022/03/29 01:42:24;;;;;;;;;40.75;32.75;;;;;14.83;40.67;100936.00;5078267;28;45261;-74
2022/03/29 01:44:49;;;;;;;;;33.00;30.00;;;;;14.67;40.52;100905.69;5075958;28;45429;-74
2022/03/29 01:47:20;;;;;;;;;35.50;31.00;;;;;14.77;40.37;100912.00;5078460;28;46147;-74
2022/03/29 01:49:46;;;;;;;;;33.00;29.25;;;;;14.70;40.19;100902.19;5076637;28;45423;-74
2022/03/29 01:52:12;;;;;;;;;25.25;22.25;;;;;14.62;40.26;100879.94;5075031;27;45296;-74
2022/03/29 01:54:37;;;;;;;;;32.25;28.25;;;;;14.50;39.79;100856.75;5070234;28;45414;-74
2022/03/29 01:57:03;;;;;;;;;41.00;29.25;;;;;14.56;39.01;100859.50;5080686;27;45346;-74
2022/03/29 02:00:30;;;;;;;;;32.75;27.00;;;;;14.47;39.92;100851.41;5070711;28;45517;-74
2022/03/29 02:02:13;;;;;;;;;34.50;29.50;;;;;14.43;39.57;100850.50;5069545;28;45437;-74
2022/03/29 02:04:39;;;;;;;;;28.00;27.50;;;;;14.30;39.38;100822.88;5076734;28;45220;-74
2022/03/29 02:07:04;;;;;;;;;36.50;28.50;;;;;14.64;39.30;100876.41;5071687;27;47023;-75
2022/03/29 02:09:29;;;;;;;;;37.50;28.75;;;;;14.57;39.27;100861.28;5076678;28;45803;-75
2022/03/29 02:11:55;;;;;;;;;27.50;22.75;;;;;14.64;38.78;100873.75;5079978;27;45173;-74
2022/03/29 02:14:20;;;;;;;;;37.50;30.75;;;;;14.71;39.00;100875.59;5071951;28;45516;-74
2022/03/29 02:16:46;;;;;;;;;31.00;24.25;;;;;14.65;39.04;100864.91;5079745;27;46300;-74
2022/03/29 02:19:12;;;;;;;;;27.00;25.25;;;;;14.73;38.60;100881.84;5077186;27;45284;-74
2022/03/29 02:21:38;;;;;;;;;32.75;26.25;;;;;14.75;38.13;100873.84;5069087;27;45308;-74
2022/03/29 02:24:03;;;;;;;;;30.25;23.00;;;;;14.74;38.47;100870.31;5078303;28;45236;-75
2022/03/29 02:26:28;;;;;;;;;27.25;26.25;;;;;14.43;38.69;100813.25;5070109;27;46186;-74
2022/03/29 02:28:54;;;;;;;;;36.25;29.75;;;;;14.62;38.32;100832.97;5079622;28;45521;-74
2022/03/29 02:31:19;;;;;;;;;32.25;27.00;;;;;14.61;37.78;100828.50;5080326;27;45317;-74
2022/03/29 02:33:44;;;;;;;;;24.50;20.00;;;;;14.52;37.79;100812.47;5079382;27;45323;-74
2022/03/29 02:36:12;;;;;;;;;27.25;26.00;;;;;14.75;37.80;100845.47;5078511;28;47050;-74
2022/03/29 02:38:38;;;;;;;;;27.75;24.00;;;;;14.51;37.39;100800.91;5078865;27;45355;-74
2022/03/29 02:41:03;;;;;;;;;29.75;25.25;;;;;14.37;37.27;100780.38;5072806;27;45340;-74
2022/03/29 02:43:29;;;;;;;;;23.00;19.75;;;;;14.53;37.27;100815.13;5079389;28;45312;-74
2022/03/29 02:45:54;;;;;;;;;26.25;26.25;;;;;14.66;36.87;100832.09;5073901;27;46387;-74
2022/03/29 02:48:19;;;;;;;;;27.25;25.25;;;;;14.66;36.68;100831.22;5079269;28;45387;-74
2022/03/29 02:50:45;;;;;;;;;29.75;22.50;;;;;14.66;36.59;100825.88;5080099;28;45419;-74
2022/03/29 02:53:11;;;;;;;;;27.25;21.75;;;;;14.66;36.86;100820.56;5078442;27;45242;-74
2022/03/29 02:55:36;;;;;;;;;29.75;24.00;;;;;14.65;36.78;100822.34;5070491;28;45372;-74
2022/03/29 02:58:03;;;;;;;;;20.00;19.00;;;;;14.37;36.69;100775.97;5076158;28;45245;-74
2022/03/29 03:00:29;;;;;;;;;24.00;23.00;;;;;14.67;36.50;100823.22;5070561;28;45390;-74
2022/03/29 03:02:55;;;;;;;;;31.00;24.50;;;;;14.66;36.66;100826.78;5078932;27;45510;-73
2022/03/29 03:05:21;;;;;;;;;27.75;24.00;;;;;14.66;36.71;100829.44;5086185;27;48180;-73
2022/03/29 03:07:48;;;;;;;;;22.00;20.25;;;;;14.64;37.00;100828.53;5080306;27;45379;-73
2022/03/29 03:10:15;;;;;;;;;29.25;26.00;;;;;14.66;36.82;100825.88;5084387;27;45386;-74
2022/03/29 03:12:42;;;;;;;;;27.50;22.00;;;;;14.43;36.90;100780.47;5072540;28;45243;-73
2022/03/29 03:15:09;;;;;;;;;24.75;21.75;;;;;14.63;36.74;100810.78;5069009;27;46106;-73
2022/03/29 03:17:35;;;;;;;;;26.25;25.75;;;;;14.43;36.64;100780.47;5071099;28;45314;-73
2022/03/29 03:20:01;;;;;;;;;32.25;24.50;;;;;14.57;36.82;100804.53;5072955;28;45355;-74
2022/03/29 03:22:27;;;;;;;;;28.25;22.75;;;;;14.57;36.72;100804.53;5071162;28;47460;-74
2022/03/29 03:24:53;;;;;;;;;26.50;23.25;;;;;14.58;36.95;100801.00;5074635;28;45450;-74
2022/03/29 03:27:18;;;;;;;;;27.75;23.75;;;;;14.58;37.14;100801.00;5073587;28;45371;-74
2022/03/29 03:29:44;;;;;;;;;26.50;22.75;;;;;14.38;36.98;100772.44;5075128;28;45371;-74
2022/03/29 03:32:10;;;;;;;;;25.25;23.00;;;;;14.57;36.89;100801.88;5073140;28;45443;-74
2022/03/29 03:34:36;;;;;;;;;25.00;21.75;;;;;14.24;36.81;100737.75;5077278;28;46346;-75
2022/03/29 03:37:04;;;;;;;;;34.00;24.50;;;;;14.36;37.00;100760.00;5073596;28;45336;-74
2022/03/29 03:39:32;;;;;;;;;22.25;19.25;;;;;14.52;36.60;100788.53;5078323;27;45653;-75
2022/03/29 03:41:58;;;;;;;;;19.00;18.00;;;;;14.43;36.79;100772.47;5073706;28;45939;-74
2022/03/29 03:44:23;;;;;;;;;23.25;21.75;;;;;14.47;37.29;100783.13;5078248;28;45270;-75
2022/03/29 03:46:48;;;;;;;;;25.75;20.50;;;;;14.44;37.51;100777.78;5074201;27;45300;-75
2022/03/29 03:49:14;;;;;;;;;24.00;17.75;;;;;14.50;37.34;100777.84;5078286;28;47758;-75
2022/03/29 03:51:39;;;;;;;;;24.00;18.75;;;;;14.50;37.20;100771.63;5073515;27;45259;-74
2022/03/29 03:54:06;;;;;;;;;26.00;23.50;;;;;14.50;37.62;100771.63;5072229;28;45324;-75
2022/03/29 03:56:32;;;;;;;;;26.75;22.50;;;;;14.51;37.61;100769.00;5087982;27;45579;-75
2022/03/29 03:58:57;;;;;;;;;22.75;21.00;;;;;14.48;37.04;100758.34;5073394;27;45332;-74
2022/03/29 04:01:23;;;;;;;;;23.50;19.00;;;;;14.54;37.20;100762.84;5074301;28;45403;-75
2022/03/29 04:03:48;;;;;;;;;22.00;20.50;;;;;14.51;37.08;100753.03;5074345;27;45214;-75
2022/03/29 04:06:14;;;;;;;;;27.25;22.75;;;;;14.50;37.72;100759.22;5073574;28;45263;-75
2022/03/29 04:08:39;;;;;;;;;25.25;21.25;;;;;14.48;37.89;100754.75;5073610;27;45455;-74
2022/03/29 04:11:06;;;;;;;;;25.25;21.75;;;;;14.38;37.89;100737.84;5065995;27;45488;-75
2022/03/29 04:13:33;;;;;;;;;25.00;22.50;;;;;14.14;37.82;100693.34;5073607;28;46378;-75
2022/03/29 04:15:59;;;;;;;;;26.25;16.00;;;;;14.42;38.40;100749.41;5077277;28;45900;-74
2022/03/29 04:18:25;;;;;;;;;25.75;21.50;;;;;14.39;38.10;100747.59;5075550;27;45213;-75
2022/03/29 04:20:50;;;;;;;;;29.50;26.25;;;;;14.39;39.05;100741.41;5083068;27;46468;-75
2022/03/29 04:23:16;;;;;;;;;27.00;21.25;;;;;14.15;38.48;100699.56;5076838;28;45211;-73
2022/03/29 04:25:41;;;;;;;;;24.75;20.75;;;;;14.21;38.26;100720.88;5067081;28;45398;-73
2022/03/29 04:28:06;;;;;;;;;25.25;23.50;;;;;13.90;39.08;100664.81;5076941;28;45272;-73
2022/03/29 04:30:32;;;;;;;;;25.00;22.00;;;;;14.32;38.67;100741.34;5078148;28;45372;-74
2022/03/29 04:32:58;;;;;;;;;28.25;26.00;;;;;14.30;39.33;100737.78;5077823;27;46027;-73
2022/03/29 04:35:23;;;;;;;;;23.00;19.75;;;;;14.21;38.06;100715.56;5071188;28;45222;-74
2022/03/29 04:37:49;;;;;;;;;27.50;23.50;;;;;14.31;38.63;100742.25;5078419;28;45243;-73
2022/03/29 04:40:14;;;;;;;;;33.00;27.75;;;;;14.21;39.19;100731.53;5072119;27;45371;-73
2022/03/29 04:42:45;;;;;;;;;27.00;24.50;;;;;13.98;39.48;100692.34;5076356;28;45671;-73
2022/03/29 04:45:12;;;;;;;;;28.25;26.50;;;;;14.27;39.00;100744.84;5073070;28;45551;-74
2022/03/29 04:47:38;;;;;;;;;13.75;11.00;;;;;14.16;39.14;100718.19;5077783;28;45543;-74
2022/03/29 04:50:04;;;;;;;;;25.00;21.50;;;;;13.96;39.06;100683.47;5078207;27;45517;-73
2022/03/29 04:52:30;;;;;;;;;26.00;21.00;;;;;14.16;41.19;100734.13;5061306;28;46671;-74
2022/03/29 04:54:55;;;;;;;;;30.00;28.25;;;;;14.16;41.20;100736.78;5066191;28;45548;-73
2022/03/29 04:57:21;;;;;;;;;13.50;8.25;;;;;13.71;41.11;100654.91;5078366;27;45383;-73
2022/03/29 04:59:46;;;;;;;;;33.25;24.00;;;;;14.02;41.04;100710.09;5071363;28;45963;-73
2022/03/29 05:02:11;;;;;;;;;33.50;22.50;;;;;13.81;41.05;100678.91;5080251;27;46233;-74
2022/03/29 05:04:36;;;;;;;;;30.75;26.50;;;;;14.18;40.91;100755.44;5076789;28;45430;-73
2022/03/29 05:07:02;;;;;;;;;33.00;25.25;;;;;13.87;41.58;100704.66;5080612;28;45389;-73
2022/03/29 05:09:28;;;;;;;;;29.00;24.50;;;;;14.13;40.35;100750.06;5069306;28;47365;-74
2022/03/29 05:11:53;;;;;;;;;23.50;20.25;;;;;14.02;40.90;100725.16;5081560;28;45354;-74
2022/03/29 05:14:18;;;;;;;;;31.75;25.50;;;;;14.12;40.06;100745.63;5076201;27;45451;-73
2022/03/29 05:16:44;;;;;;;;;26.75;23.50;;;;;14.10;41.39;100728.75;5080062;28;45276;-73
2022/03/29 05:19:09;;;;;;;;;24.50;22.00;;;;;14.10;41.76;100734.09;5078378;27;44903;-73
2022/03/29 05:21:34;;;;;;;;;27.00;26.50;;;;;13.95;41.45;100707.34;5069958;28;46038;-73
2022/03/29 05:24:00;;;;;;;;;27.50;22.75;;;;;13.94;39.94;100713.56;5077220;28;45346;-73
2022/03/29 05:26:26;;;;;;;;;29.75;28.00;;;;;13.91;40.93;100708.22;5070742;28;45655;-73
2022/03/29 05:28:51;;;;;;;;;29.75;24.50;;;;;13.73;40.08;100672.63;5080306;28;45569;-73
2022/03/29 05:31:17;;;;;;;;;25.75;24.25;;;;;13.77;41.41;100681.50;5079577;28;48237;-75
2022/03/29 05:33:42;;;;;;;;;30.50;24.50;;;;;14.05;40.47;100726.06;5073102;28;45343;-73
2022/03/29 05:36:08;;;;;;;;;28.00;25.50;;;;;14.08;41.46;100728.75;5073699;27;45423;-73
2022/03/29 05:38:33;;;;;;;;;27.25;21.75;;;;;14.09;41.66;100734.97;5080389;28;45394;-73
2022/03/29 05:40:59;;;;;;;;;30.00;26.00;;;;;14.12;41.54;100735.00;5074015;27;45947;-73
2022/03/29 05:43:25;;;;;;;;;34.00;29.50;;;;;13.99;41.17;100704.75;5077153;27;45535;-73
2022/03/29 05:48:51;;;;;;;;;37.75;30.75;;;;;13.96;41.56;100696.75;5078150;28;45407;-73
2022/03/29 05:48:55;;;;;;;;;41.00;31.25;;;;;14.14;42.00;100733.22;5079078;28;45376;-73
2022/03/29 05:51:24;;;;;;;;;29.25;22.75;;;;;14.03;41.39;100703.91;5071941;27;45419;-73
2022/03/29 05:53:51;;;;;;;;;32.75;26.50;;;;;14.06;41.02;100706.59;5070382;28;45465;-73
2022/03/29 05:56:17;;;;;;;;;24.75;23.00;;;;;14.16;40.72;100720.84;5073866;28;45251;-73
2022/03/29 05:58:42;;;;;;;;;26.75;22.25;;;;;13.83;41.31;100655.88;5076736;27;45975;-75
2022/03/29 06:01:08;;;;;;;;;33.75;26.00;;;;;13.96;41.52;100670.19;5070126;28;45279;-73
2022/03/29 06:03:33;;;;;;;;;30.50;26.25;;;;;14.03;41.01;100687.03;5076657;27;46038;-74
2022/03/29 06:05:59;;;;;;;;;37.00;31.00;;;;;13.96;40.21;100669.28;5072217;28;45292;-73
2022/03/29 06:08:24;;;;;;;;;28.50;23.75;;;;;14.20;41.32;100711.09;5075971;28;45526;-74
2022/03/29 06:10:49;;;;;;;;;24.75;19.25;;;;;14.12;40.41;100684.50;5069631;28;46080;-74
2022/03/29 06:13:15;;;;;;;;;29.50;26.25;;;;;14.10;40.79;100694.22;5073994;28;45525;-74
2022/03/29 06:15:40;;;;;;;;;32.00;24.00;;;;;14.26;40.32;100716.50;5067958;28;45772;-74
2022/03/29 06:18:06;;;;;;;;;20.25;19.75;;;;;14.28;40.90;100728.00;5074454;28;47100;-73
2022/03/29 06:20:32;;;;;;;;;34.25;29.00;;;;;14.17;40.90;100708.44;5071919;28;45434;-73
2022/03/29 06:22:57;;;;;;;;;33.50;27.75;;;;;14.19;41.44;100718.19;5077706;28;45577;-75
2022/03/29 06:25:22;;;;;;;;;34.50;27.00;;;;;14.30;42.05;100734.25;5071666;28;45347;-72
2022/03/29 06:27:49;;;;;;;;;29.50;26.00;;;;;14.23;42.56;100711.16;5077802;28;45317;-73
2022/03/29 06:30:16;;;;;;;;;33.50;28.50;;;;;14.40;42.06;100732.56;5072086;28;47235;-73
2022/03/29 06:32:50;;;;;;;;;31.25;26.25;;;;;14.42;40.33;100731.66;5093339;27;45437;-72
2022/03/29 06:35:21;;;;;;;;;28.25;25.50;;;;;14.44;41.61;100724.59;5073483;27;45216;-72
2022/03/29 06:37:48;;;;;;;;;24.25;21.25;;;;;14.48;41.48;100738.81;5065043;28;46307;-73
2022/03/29 06:40:14;;;;;;;;;32.50;27.25;;;;;14.30;42.05;100711.19;5067871;28;47143;-74
2022/03/29 06:42:39;;;;;;;;;29.25;22.00;;;;;14.49;41.39;100744.16;5064787;28;45305;-72
2022/03/29 06:45:07;;;;;;;;;35.50;28.00;;;;;14.47;42.26;100729.06;5075020;27;45335;-74
2022/03/29 06:47:33;;;;;;;;;33.25;29.00;;;;;14.59;41.25;100753.13;5079481;28;45586;-74
2022/03/29 06:49:58;;;;;;;;;32.75;27.00;;;;;14.58;41.82;100748.66;5077855;28;47140;-73
2022/03/29 06:52:26;;;;;;;;;35.50;29.25;;;;;14.52;42.21;100743.31;5076983;27;45561;-74
2022/03/29 06:54:54;;;;;;;;;30.50;27.25;;;;;14.61;41.38;100755.78;5078622;27;45340;-73
2022/03/29 06:57:20;;;;;;;;;31.75;24.25;;;;;14.52;41.40;100736.22;5077340;28;45716;-72
2022/03/29 06:59:45;;;;;;;;;26.75;23.75;;;;;14.64;42.16;100745.16;5076184;28;46973;-72
2022/03/29 07:02:11;;;;;;;;;30.00;25.75;;;;;14.67;43.32;100751.38;5074470;27;45310;-73
2022/03/29 07:04:37;;;;;;;;;31.00;24.00;;;;;14.64;42.22;100740.72;5068364;27;45430;-73
2022/03/29 07:07:03;;;;;;;;;35.00;27.00;;;;;14.46;43.26;100690.06;5071028;27;45421;-75
2022/03/29 07:12:13;;;;;;;;;33.75;28.50;;;;;14.74;41.56;100726.63;5069166;28;45430;-73
2022/03/29 07:14:39;;;;;;;;;29.50;25.25;;;;;14.81;40.62;100729.31;5072291;27;45417;-73
2022/03/29 07:17:13;;;;;;;;;29.25;26.00;;;;;14.78;41.15;100730.19;5069180;28;45233;-73
2022/03/29 07:19:38;;;;;;;;;31.25;29.00;;;;;14.78;42.11;100728.41;5076291;28;46437;-73
2022/03/29 07:22:04;;;;;;;;;33.50;28.50;;;;;14.74;42.55;100715.97;5070616;28;45292;-73
2022/03/29 07:24:30;;;;;;;;;32.00;24.75;;;;;14.63;42.71;100699.06;5063775;28;45429;-75
2022/03/29 07:26:56;;;;;;;;;40.25;30.25;;;;;14.74;42.39;100707.09;5077702;28;47304;-75
2022/03/29 07:29:21;;;;;;;;;29.75;27.75;;;;;14.63;41.47;100683.09;5070634;28;48665;-75
2022/03/29 07:31:47;;;;;;;;;37.50;30.25;;;;;14.66;41.94;100691.09;5094777;27;45288;-75
2022/03/29 07:34:13;;;;;;;;;40.25;31.50;;;;;14.76;41.31;100698.25;5073424;28;45320;-74
2022/03/29 07:36:38;;;;;;;;;31.00;26.75;;;;;14.69;41.31;100696.44;5072672;27;45383;-75
2022/03/29 07:39:04;;;;;;;;;32.25;28.50;;;;;14.71;41.90;100694.69;5082670;27;47920;-75
2022/03/29 07:41:30;;;;;;;;;23.25;19.00;;;;;14.64;41.09;100668.91;5074078;28;45349;-73
2022/03/29 07:43:56;;;;;;;;;28.50;26.50;;;;;14.88;41.35;100702.75;5074034;28;45326;-74
2022/03/29 07:46:21;;;;;;;;;33.00;29.50;;;;;14.89;41.07;100698.31;5073516;28;45513;-73
2022/03/29 07:48:47;;;;;;;;;29.00;26.25;;;;;14.82;40.95;100681.44;5071823;28;46074;-73
2022/03/29 07:51:12;;;;;;;;;30.25;26.50;;;;;14.62;40.77;100645.81;5078994;27;45372;-73
2022/03/29 07:53:38;;;;;;;;;36.25;31.50;;;;;14.87;41.09;100692.06;5076654;27;45238;-72
2022/03/29 07:56:04;;;;;;;;;29.75;23.00;;;;;14.73;40.60;100662.72;5067209;28;46718;-72
2022/03/29 07:58:30;;;;;;;;;33.25;28.50;;;;;14.89;41.40;100707.19;5075494;27;45566;-72
2022/03/29 08:00:55;;;;;;;;;31.25;27.75;;;;;14.81;41.78;100700.91;5068247;28;45492;-72
2022/03/29 08:03:21;;;;;;;;;34.25;30.25;;;;;14.87;41.23;100705.38;5078013;27;45529;-72
2022/03/29 08:05:48;;;;;;;;;37.00;31.00;;;;;14.91;41.04;100701.88;5069711;27;45600;-72
2022/03/29 08:08:15;;;;;;;;;36.75;29.25;;;;;14.73;41.44;100655.66;5072181;28;47146;-72
2022/03/29 08:10:42;;;;;;;;;35.75;31.00;;;;;14.98;41.45;100701.00;5068321;28;45444;-73
2022/03/29 08:13:10;;;;;;;;;34.00;30.00;;;;;15.01;41.28;100701.00;5075985;27;45423;-73
2022/03/29 08:15:36;;;;;;;;;38.25;31.00;;;;;14.87;41.32;100668.13;5066549;28;45299;-72
2022/03/29 08:18:02;;;;;;;;;31.25;28.25;;;;;15.12;41.56;100699.28;5071877;28;46222;-72
2022/03/29 08:20:29;;;;;;;;;36.25;29.75;;;;;15.05;40.97;100656.69;5070451;27;45396;-72
2022/03/29 08:22:59;;;;;;;;;38.50;31.00;;;;;15.09;40.73;100662.00;5069222;27;45362;-72
2022/03/29 08:25:25;;;;;;;;;35.25;30.25;;;;;15.40;41.27;100684.31;5072005;28;45515;-72
2022/03/29 08:27:51;;;;;;;;;31.75;30.25;;;;;15.48;40.46;100681.66;5077193;27;47148;-72
2022/03/29 08:30:16;;;;;;;;;37.00;32.00;;;;;15.56;40.91;100685.22;5076085;28;45229;-72
2022/03/29 08:32:43;;;;;;;;;33.00;31.25;;;;;15.62;40.10;100669.25;5077498;28;45331;-73
2022/03/29 08:35:11;;;;;;;;;37.50;30.50;;;;;15.80;40.54;100676.44;5072898;27;45378;-73
2022/03/29 08:37:36;;;;;;;;;34.50;28.50;;;;;15.71;40.67;100635.53;5077067;28;45453;-72
2022/03/29 08:40:06;;;;;;;;;38.00;32.75;;;;;16.03;40.37;100664.88;5076464;28;45425;-72
2022/03/29 08:42:32;;;;;;;;;38.00;30.25;;;;;16.13;40.14;100655.97;5078710;28;45430;-72
2022/03/29 08:45:05;;;;;;;;;33.00;26.50;;;;;16.29;39.97;100648.84;5076794;28;45445;-72
2022/03/29 08:47:31;;;;;;;;;33.75;28.00;;;;;16.39;39.81;100636.41;5079498;28;47138;-72
2022/03/29 08:49:57;;;;;;;;;36.75;31.00;;;;;16.38;39.44;100605.25;5081232;27;45377;-72
2022/03/29 08:52:22;;;;;;;;;42.75;31.50;;;;;16.80;39.10;100648.75;5079941;28;45400;-72
2022/03/29 08:54:49;;;;;;;;;38.50;30.00;;;;;16.72;39.39;100606.03;5071566;27;45530;-72
2022/03/29 08:57:15;;;;;;;;;38.75;31.75;;;;;17.14;38.72;100649.50;5080132;28;46035;-72
2022/03/29 08:59:42;;;;;;;;;37.50;33.00;;;;;17.09;38.11;100621.94;5069658;28;45222;-72
2022/03/29 09:02:17;;;;;;;;;36.75;29.50;;;;;17.00;38.57;100593.50;5074208;27;45508;-73
2022/03/29 09:04:43;;;;;;;;;40.50;32.75;;;;;17.30;37.69;100626.25;5076208;28;45207;-73
2022/03/29 09:07:10;;;;;;;;;42.00;33.00;;;;;17.21;37.96;100606.72;5076066;27;45508;-72
2022/03/29 09:09:38;;;;;;;;;29.75;28.75;;;;;17.32;37.95;100622.69;5071495;28;45409;-72
2022/03/29 09:12:11;;;;;;;;;28.25;24.50;;;;;17.39;38.02;100619.09;5068527;28;45346;-73
2022/03/29 09:14:54;;;;;;;;;35.25;30.75;;;;;17.51;38.21;100620.78;5100230;27;45443;-72
2022/03/29 09:17:40;;;;;;;;;44.75;34.75;;;;;17.66;38.20;100614.44;5078641;28;46040;-72
2022/03/29 09:20:21;;;;;;;;;35.25;30.00;;;;;17.71;37.83;100623.31;5076389;28;45433;-72
2022/03/29 09:22:55;;;;;;;;;30.75;26.00;;;;;17.63;37.76;100604.66;5074813;28;45437;-72
2022/03/29 09:25:33;;;;;;;;;38.50;32.75;;;;;17.87;37.39;100626.78;5074276;28;45209;-72
2022/03/29 09:28:13;;;;;;;;;35.75;32.00;;;;;17.89;37.54;100606.25;5064849;28;45587;-73
2022/03/29 09:30:40;;;;;;;;;37.50;30.50;;;;;18.11;37.30;100623.00;5071681;28;45436;-72
2022/03/29 09:33:12;;;;;;;;;35.25;30.00;;;;;18.25;37.02;100625.53;5080504;28;45499;-73
2022/03/29 09:35:59;;;;;;;;;35.50;28.00;;;;;18.44;37.21;100615.53;5071433;28;46728;-72
2022/03/29 09:38:30;;;;;;;;;35.00;30.00;;;;;18.50;36.97;100600.28;5080195;28;46684;-72
2022/03/29 09:40:57;;;;;;;;;35.50;31.50;;;;;18.56;36.64;100600.19;5071665;28;45334;-73
2022/03/29 09:43:24;;;;;;;;;12.00;9.25;;;;;18.50;36.37;100572.63;5079512;28;45387;-73
2022/03/29 09:45:53;;;;;;;;;40.25;32.50;;;;;18.76;36.67;100597.34;5078771;28;47159;-72
2022/03/29 09:48:28;;;;;;;;;42.25;35.00;;;;;18.96;36.21;100609.56;5079484;28;45325;-72
2022/03/29 09:51:14;;;;;;;;;32.75;27.00;;;;;18.84;35.70;100577.59;5066904;28;45387;-73
2022/03/29 09:53:52;;;;;;;;;42.75;33.50;;;;;18.98;35.94;100602.41;5078436;27;45422;-72
2022/03/29 09:56:24;;;;;;;;;46.50;35.00;;;;;18.77;36.21;100580.34;5073463;28;45323;-72
2022/03/29 09:59:07;;;;;;;;;40.25;34.00;;;;;18.89;36.36;100598.06;5065128;28;47562;-73
2022/03/29 10:01:44;;;;;;;;;35.25;29.25;;;;;18.95;36.02;100589.06;5076407;28;45335;-74
2022/03/29 10:04:10;;;;;;;;;35.25;30.00;;;;;19.17;35.74;100562.84;5074925;27;45467;-74
2022/03/29 10:06:36;;;;;;;;;39.50;32.50;;;;;19.51;35.57;100579.28;5066911;27;45292;-72
2022/03/29 10:11:46;;;;;;;;;57.25;47.00;;;;;19.79;34.77;100569.03;5068305;28;45349;-74
2022/03/29 10:14:12;;;;;;;;;56.50;43.75;;;;;20.03;34.44;100561.47;5077199;28;45532;-71
2022/03/29 10:16:38;;;;;;;;;46.00;35.75;;;;;20.24;33.98;100563.72;5067661;28;46274;-73
2022/03/29 10:19:05;;;;;;;;;48.75;38.25;;;;;20.56;33.40;100562.25;5078417;28;45383;-74
2022/03/29 10:21:31;;;;;;;;;41.25;35.25;;;;;20.50;34.05;100504.16;5070118;28;45353;-80
2022/03/29 10:23:59;;;;;;;;;39.00;32.50;;;;;20.92;32.99;100522.97;5078242;28;45771;-75
2022/03/29 10:26:27;;;;;;;;;43.00;33.00;;;;;20.97;33.28;100488.78;5072841;28;45212;-80
2022/03/29 10:28:53;;;;;;;;;39.67;30.67;;;;;21.33;32.63;100507.66;5069033;27;47191;-79
2022/03/29 10:31:33;;;;;;;;;45.33;32.67;;;;;21.79;32.54;100554.94;5078037;28;45465;-79
2022/03/29 10:34:11;;;;;;;;;34.00;28.67;;;;;21.78;32.28;100538.84;5077789;27;45512;-79
2022/03/29 10:37:13;;;;;;;;;35.00;30.33;;;;;21.95;33.18;100549.16;5074081;27;45396;-78
2022/03/29 10:39:39;;;;;;;;;40.67;30.33;;;;;21.99;30.40;100543.66;5076646;27;45469;-79
2022/03/29 10:42:22;;;;;;;;;36.00;31.33;;;;;21.62;31.65;100471.09;5075754;28;45271;-80
2022/03/29 10:45:03;;;;;;;;;38.33;32.00;;;;;22.07;31.77;100541.63;5068024;28;45385;-79
2022/03/29 10:47:30;;;;;;;;;39.67;30.33;;;;;21.84;31.49;100501.88;5064476;28;47131;-80
2022/03/29 10:49:56;;;;;;;;;38.67;33.33;;;;;21.98;31.67;100527.53;5079401;28;46399;-80
2022/03/29 10:52:22;;;;;;;;;37.67;30.67;;;;;21.93;31.07;100537.53;5079047;28;45344;-80
2022/03/29 10:54:48;;;;;;;;;41.33;31.67;;;;;21.87;30.52;100512.56;5068978;28;45598;-79
2022/03/29 10:57:14;;;;;;;;;39.00;33.00;;;;;21.99;30.56;100527.50;5072506;27;45392;-78
2022/03/29 10:59:40;;;;;;;;;37.67;32.33;;;;;22.01;30.74;100522.06;5071007;28;45560;-78
2022/03/29 11:02:20;;;;;;;;;38.00;32.33;;;;;22.08;30.99;100527.25;5076151;28;45376;-78
2022/03/29 11:05:04;;;;;;;;;38.00;32.00;;;;;22.16;31.21;100523.47;5075668;28;45404;-80
2022/03/29 11:07:31;;;;;;;;;31.67;27.33;;;;;22.25;31.08;100510.66;5075164;27;45718;-78
2022/03/29 11:10:09;;;;;;;;;37.33;26.33;;;;;22.20;31.42;100500.94;5072078;28;45554;-79
2022/03/29 11:12:38;;;;;;;;;43.00;33.67;;;;;22.22;30.32;100507.16;5078028;28;45446;-80
2022/03/29 11:15:25;;;;;;;;;31.33;26.67;;;;;22.23;30.84;100511.63;5074091;28;45473;-79
2022/03/29 11:17:51;;;;;;;;;38.67;34.00;;;;;22.25;31.35;100493.63;5074342;28;46199;-78